Maraba Paulista, Brazil
Current Conditions -  °F | °C
As of 6:00 PM on Friday 28 Nov 2014 (Local Time) from SBDN Reporting Station
Scattered Clouds Scattered Clouds  
Wind Chill: 86°   Ceiling: Unl
Heat Index: 87°   Visibility: 6mi
Dew Point: 64°   Wind: 8mph
Humidity: 48%   Direction: 90°E
Pressure: 29.85"   Gusts: NA
Location:  22.11°S, 51.96°W
Report Text: SBDN 282000Z 09007KT 9999 FEW035TCU SCT035 30/18 Q1011
Loading
Personal Weather Stations






























Interactive Weather Map New forecast layout! Learn more

10-Day Weather Forecast

Advertisements
Track Severe Weather on mobile